createdAt,value
2019-01-25T00:00:41.301Z,22
2019-01-25T00:01:31.309Z,22
2019-01-25T00:02:21.385Z,22.1
2019-01-25T00:03:17.370Z,22.1
2019-01-25T00:04:01.496Z,22.1
2019-01-25T00:04:51.897Z,22.1
2019-01-25T00:05:41.617Z,22.1
2019-01-25T00:06:31.384Z,22.1
2019-01-25T00:07:21.704Z,22.1
2019-01-25T00:08:12.092Z,22.1
2019-01-25T00:09:02.140Z,22.2
2019-01-25T00:09:59.604Z,22.1
2019-01-25T00:10:41.676Z,22.1
2019-01-25T00:11:32.011Z,22.1
2019-01-25T00:12:22.071Z,22.1
2019-01-25T00:13:12.666Z,22.1
2019-01-25T00:14:02.184Z,22.1
2019-01-25T00:14:52.233Z,22.1
2019-01-25T00:15:42.071Z,22.1
2019-01-25T00:16:32.366Z,22.1
2019-01-25T00:17:22.389Z,22.1
2019-01-25T00:18:12.481Z,22.1
2019-01-25T00:19:02.866Z,22.1
2019-01-25T00:19:52.586Z,22.1
2019-01-25T00:20:42.931Z,22
2019-01-25T00:21:32.981Z,22
2019-01-25T00:22:23.363Z,21.9
2019-01-25T00:23:13.348Z,22
2019-01-25T00:24:04.736Z,22
2019-01-25T00:24:53.564Z,22
2019-01-25T00:25:42.985Z,22
2019-01-25T00:26:33.325Z,22
2019-01-25T00:27:23.153Z,22.1
2019-01-25T00:28:12.877Z,22.1
2019-01-25T00:29:04.093Z,22.1
2019-01-25T00:29:53.554Z,22.1
2019-01-25T00:30:43.665Z,22.1
2019-01-25T00:31:35.020Z,22.1
2019-01-25T00:32:23.991Z,22.1
2019-01-25T00:33:14.070Z,22.2
2019-01-25T00:34:03.555Z,22.2
2019-01-25T00:34:54.440Z,22.2
2019-01-25T00:35:44.020Z,22.3
2019-01-25T00:36:34.048Z,22.2
2019-01-25T00:37:24.364Z,22.3
2019-01-25T00:38:14.426Z,22.2
2019-01-25T00:39:03.644Z,22.3
2019-01-25T00:39:53.700Z,22.2
2019-01-25T00:40:45.334Z,22.2
2019-01-25T00:41:34.352Z,22.2
2019-01-25T00:42:23.866Z,22.2
2019-01-25T00:43:14.520Z,22.2
2019-01-25T00:44:03.958Z,22.2
2019-01-25T00:44:54.869Z,22.1
2019-01-25T00:45:45.201Z,22.1
2019-01-25T00:46:34.691Z,22.1
2019-01-25T00:47:24.784Z,22.1
2019-01-25T00:48:13.999Z,22.1
2019-01-25T00:49:04.312Z,22.1
2019-01-25T00:49:54.934Z,22
2019-01-25T00:50:44.981Z,22
2019-01-25T00:51:34.774Z,22
2019-01-25T00:52:25.100Z,22.1
2019-01-25T00:53:15.441Z,22.1
2019-01-25T00:54:04.689Z,22.1
2019-01-25T00:54:53.902Z,22.1
2019-01-25T00:55:45.651Z,22.1
2019-01-25T00:56:34.848Z,22.1
2019-01-25T00:57:24.901Z,22.1
2019-01-25T00:58:16.080Z,22.2
2019-01-25T00:59:05.335Z,22.2
2019-01-25T00:59:55.897Z,22.2
2019-01-25T01:00:45.425Z,22.2
2019-01-25T01:01:35.226Z,22.2
2019-01-25T01:02:26.361Z,22.2
2019-01-25T01:03:16.143Z,22.1
2019-01-25T01:04:05.388Z,22.1
2019-01-25T01:04:55.998Z,22.1
2019-01-25T01:05:45.753Z,22
2019-01-25T01:06:36.095Z,22
2019-01-25T01:07:26.140Z,22
2019-01-25T01:08:16.210Z,22
2019-01-25T01:09:06.810Z,22
2019-01-25T01:09:56.318Z,22
2019-01-25T01:10:46.758Z,22
2019-01-25T01:11:36.172Z,22
2019-01-25T01:12:26.482Z,22
2019-01-25T01:13:16.565Z,22
2019-01-25T01:14:06.900Z,22.1
2019-01-25T01:14:57.225Z,22.1
2019-01-25T01:15:46.734Z,22.1
2019-01-25T01:16:37.045Z,22.1
2019-01-25T01:17:27.387Z,22.1
2019-01-25T01:18:16.378Z,22.1
2019-01-25T01:19:06.937Z,22.2
2019-01-25T01:19:57.024Z,22.2
2019-01-25T01:20:47.329Z,22.3
2019-01-25T01:21:37.107Z,22.2
2019-01-25T01:22:27.185Z,22.3
2019-01-25T01:23:16.965Z,22.3
2019-01-25T01:24:07.312Z,22.3
2019-01-25T01:24:57.614Z,22.3
2019-01-25T01:25:47.419Z,22.3
2019-01-25T01:26:37.474Z,22.2
2019-01-25T01:27:27.792Z,22.2
2019-01-25T01:28:17.875Z,22.2
2019-01-25T01:29:07.649Z,22.2
2019-01-25T01:29:57.156Z,22.1
2019-01-25T01:30:48.049Z,22.1
2019-01-25T01:31:37.842Z,22.1
2019-01-25T01:32:27.589Z,22.1
2019-01-25T01:33:18.199Z,22.1
2019-01-25T01:34:07.786Z,22.1
2019-01-25T01:34:58.023Z,22.1
2019-01-25T01:35:47.821Z,22.1
2019-01-25T01:36:38.146Z,22.1
2019-01-25T01:37:28.229Z,22.1
2019-01-25T01:38:18.578Z,22.1
2019-01-25T01:39:07.775Z,22.1
2019-01-25T01:39:58.123Z,22.1
2019-01-25T01:40:48.753Z,22.1
2019-01-25T01:41:38.826Z,22.1
2019-01-25T01:42:28.916Z,22.1
2019-01-25T01:43:18.066Z,22.1
2019-01-25T01:44:08.425Z,22.2
2019-01-25T01:44:58.750Z,22.2
2019-01-25T01:45:48.518Z,22.2
2019-01-25T01:46:39.165Z,22.3
2019-01-25T01:47:28.358Z,22.3
2019-01-25T01:48:18.693Z,22.3
2019-01-25T01:49:08.510Z,22.3
2019-01-25T01:49:58.815Z,22.3
2019-01-25T01:50:48.335Z,22.3
2019-01-25T01:51:39.502Z,22.3
2019-01-25T01:52:28.701Z,22.3
2019-01-25T01:53:19.045Z,22.3
2019-01-25T01:54:09.370Z,22.3
2019-01-25T01:54:59.432Z,22.3
2019-01-25T01:55:50.060Z,22.3
2019-01-25T01:56:39.056Z,22.2
2019-01-25T01:57:29.879Z,22.2
2019-01-25T01:58:19.650Z,22.2
2019-01-25T01:59:10.287Z,22.2
2019-01-25T01:59:59.284Z,22.1
2019-01-25T02:00:50.101Z,22.1
2019-01-25T02:01:39.677Z,22.1
2019-01-25T02:02:29.954Z,22.1
2019-01-25T02:03:19.727Z,22
2019-01-25T02:04:09.851Z,22.1
2019-01-25T02:05:00.415Z,22
2019-01-25T02:05:50.012Z,22.1
2019-01-25T02:06:39.974Z,22.1
2019-01-25T02:07:30.292Z,22.1
2019-01-25T02:08:20.629Z,22.1
2019-01-25T02:09:10.426Z,22.1
2019-01-25T02:09:59.976Z,22.1
2019-01-25T02:10:50.808Z,22.2
2019-01-25T02:11:40.606Z,22.2
2019-01-25T02:12:30.623Z,22.3
2019-01-25T02:13:20.703Z,22.3
2019-01-25T02:14:10.979Z,22.3
2019-01-25T02:15:00.858Z,22.3
2019-01-25T02:15:50.360Z,22.3
2019-01-25T02:16:40.656Z,22.3
2019-01-25T02:17:30.961Z,22.4
2019-01-25T02:18:21.618Z,22.4
2019-01-25T02:19:11.147Z,22.4
2019-01-25T02:20:01.453Z,22.4
2019-01-25T02:20:50.940Z,22.4
2019-01-25T02:21:41.271Z,22.4
2019-01-25T02:22:31.431Z,22.4
2019-01-25T02:23:21.677Z,22.4
2019-01-25T02:24:11.490Z,22.4
2019-01-25T02:25:01.778Z,22.4
2019-01-25T02:25:51.288Z,22.4
2019-01-25T02:26:41.328Z,22.4
2019-01-25T02:27:31.421Z,22.3
2019-01-25T02:28:21.745Z,22.3
2019-01-25T02:29:11.793Z,22.3
2019-01-25T02:30:01.951Z,22.3
2019-01-25T02:30:51.698Z,22.2
2019-01-25T02:31:41.804Z,22.2
2019-01-25T02:32:31.846Z,22.2
2019-01-25T02:33:22.695Z,22.2
2019-01-25T02:34:12.725Z,22.2
2019-01-25T02:35:02.302Z,22.1
2019-01-25T02:35:52.603Z,22.2
2019-01-25T02:36:42.156Z,22.1
2019-01-25T02:37:32.787Z,22.2
2019-01-25T02:38:21.677Z,22.2
2019-01-25T02:39:12.300Z,22.2
2019-01-25T02:40:02.607Z,22.2
2019-01-25T02:40:52.644Z,22.2
2019-01-25T02:41:43.017Z,22.2
2019-01-25T02:42:34.740Z,22.3
2019-01-25T02:43:22.861Z,22.3
2019-01-25T02:44:12.629Z,22.3
2019-01-25T02:45:02.932Z,22.3
2019-01-25T02:45:52.980Z,22.3
2019-01-25T02:46:43.027Z,22.2
2019-01-25T02:47:32.560Z,22.2
2019-01-25T02:48:23.211Z,22.2
2019-01-25T02:49:12.930Z,22.1
2019-01-25T02:50:03.736Z,22.1
2019-01-25T02:50:52.472Z,22.1
2019-01-25T02:51:43.646Z,22.1
2019-01-25T02:52:33.437Z,22.1
2019-01-25T02:53:23.498Z,22.1
2019-01-25T02:54:13.824Z,22.1
2019-01-25T02:55:03.424Z,22.1
2019-01-25T02:55:53.408Z,22.1
2019-01-25T02:56:43.498Z,22.1
2019-01-25T02:57:34.126Z,22.1
2019-01-25T02:58:23.297Z,22.1
2019-01-25T02:59:14.179Z,22.1
2019-01-25T03:00:03.939Z,22.2
2019-01-25T03:00:54.347Z,22.2
2019-01-25T03:01:44.063Z,22.3
2019-01-25T03:02:34.488Z,22.3
2019-01-25T03:03:24.498Z,22.3
2019-01-25T03:04:14.809Z,22.3
2019-01-25T03:05:04.306Z,22.3
2019-01-25T03:08:37.340Z,22.4
2019-01-25T03:09:26.718Z,22.4
2019-01-25T03:10:17.369Z,22.4
2019-01-25T03:11:07.647Z,22.4
2019-01-25T03:11:57.161Z,22.3
2019-01-25T03:12:47.873Z,22.3
2019-01-25T03:13:37.605Z,22.3
2019-01-25T03:14:27.691Z,22.3
2019-01-25T03:15:17.997Z,22.2
2019-01-25T03:16:07.418Z,22.2
2019-01-25T03:16:56.932Z,22.2
2019-01-25T03:17:48.254Z,22.1
2019-01-25T03:18:37.639Z,22.1
2019-01-25T03:19:28.010Z,22.1
2019-01-25T03:20:18.258Z,22.1
2019-01-25T03:21:09.959Z,22.1
2019-01-25T03:21:58.137Z,22.1
2019-01-25T03:22:48.191Z,22.1
2019-01-25T03:23:38.324Z,22.2
2019-01-25T03:24:28.333Z,22.2
2019-01-25T03:25:18.069Z,22.2
2019-01-25T03:26:08.702Z,22.2
2019-01-25T03:26:58.470Z,22.2
2019-01-25T03:27:48.525Z,22.2
2019-01-25T03:28:38.890Z,22.3
2019-01-25T03:29:28.649Z,22.2
2019-01-25T03:30:19.210Z,22.3
2019-01-25T03:31:08.890Z,22.2
2019-01-25T03:31:58.993Z,22.3
2019-01-25T03:32:48.778Z,22.3
2019-01-25T03:33:38.686Z,22.3
2019-01-25T03:34:29.313Z,22.3
2019-01-25T03:35:19.101Z,22.4
2019-01-25T03:36:09.101Z,22.4
2019-01-25T03:36:58.557Z,22.4
2019-01-25T03:37:49.216Z,22.4
2019-01-25T03:38:39.309Z,22.4
2019-01-25T03:39:29.115Z,22.4
2019-01-25T03:40:19.668Z,22.4
2019-01-25T03:41:09.729Z,22.3
2019-01-25T03:41:59.183Z,22.3
2019-01-25T03:42:49.870Z,22.3
2019-01-25T03:43:39.608Z,22.3
2019-01-25T03:44:29.933Z,22.3
2019-01-25T03:45:19.446Z,22.3
2019-01-25T03:46:09.536Z,22.2
2019-01-25T03:47:00.130Z,22.2
2019-01-25T03:47:49.740Z,22.2
2019-01-25T03:48:39.680Z,22.1
2019-01-25T03:49:30.036Z,22.1
2019-01-25T03:50:20.382Z,22.1
2019-01-25T03:51:10.139Z,22.1
2019-01-25T03:52:00.477Z,22.1
2019-01-25T03:52:49.675Z,22.1
2019-01-25T03:53:40.300Z,22.2
2019-01-25T03:54:30.645Z,22.2
2019-01-25T03:55:20.170Z,22.3
2019-01-25T03:56:10.752Z,22.3
2019-01-25T03:57:00.542Z,22.3
2019-01-25T03:57:50.608Z,22.3
2019-01-25T03:58:40.624Z,22.3
2019-01-25T03:59:30.992Z,22.3
2019-01-25T04:00:20.475Z,22.3
2019-01-25T04:01:10.504Z,22.3
2019-01-25T04:02:00.875Z,22.3
2019-01-25T04:02:50.375Z,22.3
2019-01-25T04:03:41.240Z,22.3
2019-01-25T04:04:29.901Z,22.3
2019-01-25T04:05:21.387Z,22.4
2019-01-25T04:06:11.165Z,22.4
2019-01-25T04:07:00.893Z,22.4
2019-01-25T04:07:51.662Z,22.4
2019-01-25T04:08:41.044Z,22.4
2019-01-25T04:09:31.418Z,22.4
2019-01-25T04:10:21.181Z,22.4
2019-01-25T04:11:11.509Z,22.3
2019-01-25T04:12:01.566Z,22.3
2019-01-25T04:12:51.611Z,22.3
2019-01-25T04:13:41.401Z,22.3
2019-01-25T04:14:32.041Z,22.3
2019-01-25T04:15:21.750Z,22.2
2019-01-25T04:16:11.656Z,22.2
2019-01-25T04:17:01.869Z,22.1
2019-01-25T04:17:51.169Z,22.1
2019-01-25T04:18:42.341Z,22.1
2019-01-25T04:19:31.780Z,22.1
2019-01-25T04:20:22.488Z,22.1
2019-01-25T04:21:12.256Z,22.1
2019-01-25T04:22:02.235Z,22.1
2019-01-25T04:22:52.345Z,22.2
2019-01-25T04:23:42.637Z,22.2
2019-01-25T04:24:32.413Z,22.3
2019-01-25T04:25:22.890Z,22.3
2019-01-25T04:26:12.306Z,22.3
2019-01-25T04:27:02.566Z,22.3
2019-01-25T04:27:51.802Z,22.3
2019-01-25T04:28:42.667Z,22.3
2019-01-25T04:29:33.101Z,22.3
2019-01-25T04:30:22.930Z,22.3
2019-01-25T04:31:12.680Z,22.2
2019-01-25T04:32:02.899Z,22.1
2019-01-25T04:32:53.086Z,22.1
2019-01-25T04:33:43.305Z,22.1
2019-01-25T04:34:33.343Z,22.1
2019-01-25T04:35:23.304Z,22.1
2019-01-25T04:36:13.027Z,22.1
2019-01-25T04:37:03.039Z,22.1
2019-01-25T04:37:53.679Z,22.1
2019-01-25T04:38:43.712Z,22.1
2019-01-25T04:39:33.127Z,22.1
2019-01-25T04:40:23.552Z,22.1
2019-01-25T04:41:18.762Z,22.1
2019-01-25T04:42:03.873Z,22.1
2019-01-25T04:42:53.697Z,22.1
2019-01-25T04:43:43.450Z,22.1
2019-01-25T04:44:33.226Z,22.2
2019-01-25T04:45:23.834Z,22.2
2019-01-25T04:46:13.677Z,22.3
2019-01-25T04:47:03.445Z,22.3
2019-01-25T04:47:54.058Z,22.3
2019-01-25T04:48:43.819Z,22.3
2019-01-25T04:49:33.629Z,22.3
2019-01-25T04:50:25.762Z,22.3
2019-01-25T04:51:14.297Z,22.3
2019-01-25T04:52:03.439Z,22.3
2019-01-25T04:52:54.148Z,22.4
2019-01-25T04:53:44.525Z,22.4
2019-01-25T04:54:34.713Z,22.3
2019-01-25T04:55:23.792Z,22.3
2019-01-25T04:56:14.602Z,22.3
2019-01-25T04:57:04.973Z,22.3
2019-01-25T04:57:55.063Z,22.2
2019-01-25T04:58:44.227Z,22.2
2019-01-25T04:59:34.603Z,22.2
2019-01-25T05:00:24.940Z,22.2
2019-01-25T05:01:15.217Z,22.1
2019-01-25T05:02:05.268Z,22.1
2019-01-25T05:02:54.493Z,22.1
2019-01-25T05:03:45.171Z,22.1
2019-01-25T05:04:34.853Z,22.1
2019-01-25T05:05:25.240Z,22.1
2019-01-25T05:06:15.597Z,22.1
2019-01-25T05:07:05.651Z,22.1
2019-01-25T05:07:55.133Z,22.1
2019-01-25T05:08:45.435Z,22.1
2019-01-25T05:09:35.555Z,22.1
2019-01-25T05:10:25.839Z,22.2
2019-01-25T05:11:24.375Z,22.2
2019-01-25T05:12:05.944Z,22.2
2019-01-25T05:13:00.003Z,22.3
2019-01-25T05:13:45.798Z,22.3
2019-01-25T05:14:35.875Z,22.3
2019-01-25T05:15:26.228Z,22.3
2019-01-25T05:16:16.325Z,22.4
2019-01-25T05:17:06.278Z,22.4
2019-01-25T05:17:56.380Z,22.4
2019-01-25T05:18:46.168Z,22.4
2019-01-25T05:19:36.187Z,22.4
2019-01-25T05:20:26.520Z,22.4
2019-01-25T05:21:16.660Z,22.4
2019-01-25T05:22:05.816Z,22.4
2019-01-25T05:22:55.611Z,22.3
2019-01-25T05:23:46.504Z,22.3
2019-01-25T05:24:36.562Z,22.3
2019-01-25T05:25:26.307Z,22.3
2019-01-25T05:26:16.911Z,22.3
2019-01-25T05:27:06.964Z,22.2
2019-01-25T05:27:56.448Z,22.2
2019-01-25T05:28:46.246Z,22.2
2019-01-25T05:29:36.317Z,22.2
2019-01-25T05:30:27.250Z,22.2
2019-01-25T05:31:16.721Z,22.1
2019-01-25T05:32:07.051Z,22.1
2019-01-25T05:32:57.069Z,22.1
2019-01-25T05:33:47.183Z,22.1
2019-01-25T05:34:36.921Z,22.1
2019-01-25T05:35:27.266Z,22.1
2019-01-25T05:36:17.306Z,22.1
2019-01-25T05:37:06.844Z,22.2
2019-01-25T05:37:57.718Z,22.2
2019-01-25T05:38:47.486Z,22.3
2019-01-25T05:39:37.568Z,22.3
2019-01-25T05:40:27.374Z,22.3
2019-01-25T05:41:17.658Z,22.3
2019-01-25T05:42:08.004Z,22.3
2019-01-25T05:42:58.035Z,22.4
2019-01-25T05:43:47.826Z,22.4
2019-01-25T05:44:37.862Z,22.4
2019-01-25T05:45:28.323Z,22.4
2019-01-25T05:46:18.018Z,22.4
2019-01-25T05:47:08.309Z,22.4
2019-01-25T05:47:58.131Z,22.4
2019-01-25T05:48:48.475Z,22.4
2019-01-25T05:49:38.493Z,22.3
2019-01-25T05:50:28.607Z,22.1
2019-01-25T05:51:18.607Z,21.9
2019-01-25T05:52:08.372Z,21.8
2019-01-25T05:52:58.765Z,21.8
2019-01-25T05:53:48.470Z,21.7
2019-01-25T05:54:37.707Z,21.6
2019-01-25T05:55:28.629Z,21.6
2019-01-25T05:56:18.413Z,21.5
2019-01-25T05:57:08.454Z,21.5
2019-01-25T05:57:58.762Z,21.5
2019-01-25T05:58:48.844Z,21.4
2019-01-25T05:59:38.615Z,21.4
2019-01-25T06:00:29.226Z,21.4
2019-01-25T06:01:19.034Z,21.4
2019-01-25T06:02:09.116Z,21.4
2019-01-25T06:02:58.845Z,21.4
2019-01-25T06:03:48.892Z,21.4
2019-01-25T06:06:36.531Z,21.4
2019-01-25T06:07:26.479Z,21.4
2019-01-25T06:08:16.001Z,21.4
2019-01-25T06:09:06.927Z,21.4
2019-01-25T06:09:56.737Z,21.4
2019-01-25T06:10:46.974Z,21.4
2019-01-25T06:11:42.194Z,21.4
2019-01-25T06:12:27.085Z,21.4
2019-01-25T06:13:16.881Z,21.5
2019-01-25T06:14:07.473Z,21.5
2019-01-25T06:14:57.370Z,21.5
2019-01-25T06:15:47.643Z,21.4
2019-01-25T06:16:37.986Z,21.4
2019-01-25T06:17:27.168Z,21.4
2019-01-25T06:18:17.830Z,21.3
2019-01-25T06:19:07.592Z,21.3
2019-01-25T06:19:57.445Z,21.3
2019-01-25T06:20:47.712Z,21.3
2019-01-25T06:21:37.150Z,21.3
2019-01-25T06:22:27.543Z,21.3
2019-01-25T06:23:17.253Z,21.3
2019-01-25T06:24:07.891Z,21.3
2019-01-25T06:24:58.255Z,21.3
2019-01-25T06:25:47.825Z,21.4
2019-01-25T06:26:38.605Z,21.4
2019-01-25T06:27:27.825Z,21.4
2019-01-25T06:28:18.702Z,21.4
2019-01-25T06:29:07.925Z,21.4
2019-01-25T06:29:58.547Z,21.4
2019-01-25T06:30:47.490Z,21.3
2019-01-25T06:31:38.395Z,21.4
2019-01-25T06:32:28.992Z,21.3
2019-01-25T06:33:18.814Z,21.3
2019-01-25T06:34:08.355Z,21.3
2019-01-25T06:34:58.912Z,21.3
2019-01-25T06:35:48.980Z,21.4
2019-01-25T06:36:39.045Z,21.4
2019-01-25T06:37:28.522Z,21.4
2019-01-25T06:38:17.997Z,21.4
2019-01-25T06:39:09.207Z,21.3
2019-01-25T06:39:58.101Z,21.3
2019-01-25T06:40:48.192Z,21.3
2019-01-25T06:41:47.529Z,21.3
2019-01-25T06:42:29.402Z,21.3
2019-01-25T06:43:19.234Z,21.2
2019-01-25T06:44:08.718Z,21.2
2019-01-25T06:44:59.014Z,21.2
2019-01-25T06:45:51.001Z,21.2
2019-01-25T06:49:09.357Z,21.1
2019-01-25T06:52:29.534Z,21.2
2019-01-25T06:53:19.630Z,21.2
2019-01-25T06:54:10.471Z,21.2
2019-01-25T06:54:59.986Z,21.2
2019-01-25T06:55:50.041Z,21.3
2019-01-25T06:56:40.101Z,21.3
2019-01-25T06:57:30.453Z,21.3
2019-01-25T06:58:20.218Z,21.3
2019-01-25T06:59:09.986Z,21.3
2019-01-25T07:00:00.670Z,21.3
2019-01-25T07:00:49.845Z,21.3
2019-01-25T07:01:40.765Z,21.3
2019-01-25T07:02:30.800Z,21.4
2019-01-25T07:03:20.825Z,21.4
2019-01-25T07:04:12.528Z,21.4
2019-01-25T07:06:36.650Z,21.4
2019-01-25T07:07:26.540Z,21.4
2019-01-25T07:08:17.112Z,21.3
2019-01-25T07:09:06.602Z,21.3
2019-01-25T07:09:57.499Z,21.3
2019-01-25T07:10:47.035Z,21.3
2019-01-25T07:11:52.098Z,21.3
2019-01-25T07:12:27.054Z,21.3
2019-01-25T07:13:17.151Z,21.2
2019-01-25T07:14:07.844Z,21.2
2019-01-25T07:14:57.517Z,21.2
2019-01-25T07:15:47.869Z,21.2
2019-01-25T07:17:27.129Z,21.2
2019-01-25T07:18:16.891Z,21.2
2019-01-25T07:19:07.829Z,21.2
2019-01-25T07:19:57.288Z,21.2
2019-01-25T07:20:48.174Z,21.2
2019-01-25T07:21:38.239Z,21.3
2019-01-25T07:22:27.499Z,21.3
2019-01-25T07:23:17.789Z,21.3
2019-01-25T07:24:07.844Z,21.3
2019-01-25T07:25:04.025Z,21.3
2019-01-25T07:25:48.261Z,21.3
2019-01-25T07:26:38.294Z,21.3
2019-01-25T07:27:28.086Z,21.3
2019-01-25T07:28:17.863Z,21.4
2019-01-25T07:29:08.679Z,21.4
2019-01-25T07:29:58.366Z,21.4
2019-01-25T07:30:48.734Z,21.4
2019-01-25T07:31:39.414Z,21.4
2019-01-25T07:32:28.351Z,21.4
2019-01-25T07:33:18.799Z,21.4
2019-01-25T07:34:07.956Z,21.4
2019-01-25T07:34:58.273Z,21.4
2019-01-25T07:35:48.806Z,21.3
2019-01-25T07:36:39.290Z,21.3
2019-01-25T07:37:29.099Z,21.3
2019-01-25T07:38:18.790Z,21.3
2019-01-25T07:39:09.181Z,21.3
2019-01-25T07:40:00.031Z,21.3
2019-01-25T07:40:49.408Z,21.3
2019-01-25T07:41:38.973Z,21.2
2019-01-25T07:42:29.491Z,21.2
2019-01-25T07:43:19.596Z,21.2
2019-01-25T07:44:09.935Z,21.2
2019-01-25T07:45:00.364Z,21.2
2019-01-25T07:45:50.215Z,21.2
2019-01-25T07:46:40.083Z,21.2
2019-01-25T07:47:30.109Z,21.2
2019-01-25T07:48:20.201Z,21.2
2019-01-25T07:49:10.750Z,21.3
2019-01-25T07:49:59.498Z,21.3
2019-01-25T07:50:50.453Z,21.3
2019-01-25T07:51:39.927Z,21.3
2019-01-25T07:52:30.507Z,21.3
2019-01-25T07:53:22.118Z,21.3
2019-01-25T07:54:10.708Z,21.3
2019-01-25T07:54:59.708Z,21.3
2019-01-25T07:55:50.814Z,21.3
2019-01-25T07:56:40.760Z,21.4
2019-01-25T07:57:30.460Z,21.4
2019-01-25T07:58:20.677Z,21.4
2019-01-25T07:59:10.513Z,21.4
2019-01-25T08:00:00.660Z,21.4
2019-01-25T08:00:50.838Z,21.4
2019-01-25T08:01:41.345Z,21.3
2019-01-25T08:02:30.100Z,21.3
2019-01-25T08:03:20.434Z,21.3
2019-01-25T08:04:11.069Z,21.2
2019-01-25T08:05:01.296Z,21.2
2019-01-25T08:09:11.721Z,21.2
2019-01-25T08:10:02.198Z,21.2
2019-01-25T08:10:51.937Z,21.2
2019-01-25T08:11:41.200Z,21.2
2019-01-25T08:12:31.662Z,21.3
2019-01-25T08:13:22.019Z,21.3
2019-01-25T08:14:13.608Z,21.3
2019-01-25T08:15:02.408Z,21.3
2019-01-25T08:15:52.094Z,21.3
2019-01-25T08:16:41.857Z,21.3
2019-01-25T08:17:31.919Z,21.3
2019-01-25T08:18:21.939Z,21.3
2019-01-25T08:19:12.518Z,21.4
2019-01-25T08:20:04.907Z,21.4
2019-01-25T08:20:52.161Z,21.4
2019-01-25T08:21:43.837Z,21.4
2019-01-25T08:22:33.098Z,21.4
2019-01-25T08:23:22.976Z,21.4
2019-01-25T08:24:12.125Z,21.3
2019-01-25T08:25:03.336Z,21.3
2019-01-25T08:25:53.243Z,21.3
2019-01-25T08:26:44.296Z,21.3
2019-01-25T08:27:32.846Z,21.3
2019-01-25T08:28:23.088Z,21.3
2019-01-25T08:29:12.818Z,21.3
2019-01-25T08:30:02.943Z,21.2
2019-01-25T08:30:53.185Z,21.2
2019-01-25T08:31:43.314Z,21.2
2019-01-25T08:32:33.547Z,21.2
2019-01-25T08:33:24.070Z,21.2
2019-01-25T08:35:52.998Z,21.2
2019-01-25T08:36:43.204Z,21.2
2019-01-25T08:37:33.297Z,21.2
2019-01-25T08:38:23.735Z,21.2
2019-01-25T08:39:14.117Z,21.3
2019-01-25T08:40:03.950Z,21.3
2019-01-25T08:40:55.279Z,21.3
2019-01-25T08:41:43.490Z,21.3
2019-01-25T08:42:33.643Z,21.3
2019-01-25T08:43:23.424Z,21.3
2019-01-25T08:44:13.797Z,21.3
2019-01-25T08:45:07.443Z,21.4
2019-01-25T08:45:56.592Z,21.4
2019-01-25T08:46:43.890Z,21.4
2019-01-25T08:47:34.357Z,21.4
2019-01-25T08:48:23.367Z,21.4
2019-01-25T08:49:13.978Z,21.4
2019-01-25T08:50:06.467Z,21.4
2019-01-25T08:50:54.495Z,21.4
2019-01-25T08:51:45.947Z,21.4
2019-01-25T08:52:34.963Z,21.3
2019-01-25T08:53:24.891Z,21.3
2019-01-25T08:54:15.896Z,21.3
2019-01-25T08:55:04.558Z,21.3
2019-01-25T08:55:54.981Z,21.3
2019-01-25T08:56:44.233Z,21.3
2019-01-25T08:57:34.771Z,21.3
2019-01-25T08:58:25.071Z,21.3
2019-01-25T08:59:15.486Z,21.2
2019-01-25T09:00:04.768Z,21.2
2019-01-25T09:03:24.150Z,21.2
2019-01-25T09:04:14.323Z,21.2
2019-01-25T09:05:05.269Z,21.2
2019-01-25T09:05:55.107Z,21.2
2019-01-25T09:06:45.198Z,21.3
2019-01-25T09:07:35.292Z,21.3
2019-01-25T09:08:25.328Z,21.3
2019-01-25T09:09:14.790Z,21.3
2019-01-25T09:10:05.455Z,21.3
2019-01-25T09:10:54.627Z,21.3
2019-01-25T09:11:44.982Z,21.3
2019-01-25T09:12:35.866Z,21.3
2019-01-25T09:13:25.917Z,21.3
2019-01-25T09:14:15.704Z,21.4
2019-01-25T09:15:04.767Z,21.4
2019-01-25T09:15:55.554Z,21.4
2019-01-25T09:16:45.327Z,21.4
2019-01-25T09:17:35.356Z,21.4
2019-01-25T09:18:25.735Z,21.4
2019-01-25T09:19:14.652Z,21.4
2019-01-25T09:20:06.237Z,21.4
2019-01-25T09:20:57.030Z,21.3
2019-01-25T09:21:45.942Z,21.3
2019-01-25T09:22:35.782Z,21.3
2019-01-25T09:23:25.279Z,21.3
2019-01-25T09:24:16.666Z,21.3
2019-01-25T09:25:06.466Z,21.3
2019-01-25T09:26:03.744Z,21.3
2019-01-25T09:26:45.804Z,21.2
2019-01-25T09:27:36.926Z,21.3
2019-01-25T09:28:26.389Z,21.3
2019-01-25T09:29:15.891Z,21.3
2019-01-25T09:30:06.778Z,21.3
2019-01-25T09:30:56.549Z,21.3
2019-01-25T09:31:47.193Z,21.3
2019-01-25T09:32:36.976Z,21.3
2019-01-25T09:33:27.161Z,21.3
2019-01-25T09:34:17.385Z,21.3
2019-01-25T09:35:08.891Z,21.3
2019-01-25T09:35:56.933Z,21.3
2019-01-25T09:36:47.330Z,21.3
2019-01-25T09:37:37.322Z,21.4
2019-01-25T09:38:27.383Z,21.4
2019-01-25T09:39:17.150Z,21.4
2019-01-25T09:40:07.473Z,21.5
2019-01-25T09:40:56.663Z,21.6
2019-01-25T09:41:47.021Z,21.8
2019-01-25T09:42:37.958Z,21.8
2019-01-25T09:43:27.208Z,21.7
2019-01-25T09:44:17.525Z,21.6
2019-01-25T09:45:07.533Z,21.6
2019-01-25T09:45:57.863Z,21.6
2019-01-25T09:46:47.073Z,21.4
2019-01-25T09:47:36.862Z,21.4
2019-01-25T10:29:26.874Z,21.3
2019-01-25T10:29:37.655Z,21.3
2019-01-25T10:30:26.343Z,21.3
2019-01-25T10:31:18.068Z,21.4
2019-01-25T10:32:07.863Z,21.4
2019-01-25T10:32:56.802Z,21.4
2019-01-25T10:33:47.712Z,21.4
2019-01-25T10:34:37.738Z,21.4
2019-01-25T10:35:27.592Z,21.4
2019-01-25T10:36:18.422Z,21.4
2019-01-25T10:37:07.905Z,21.4
2019-01-25T10:37:58.584Z,21.5
2019-01-25T10:38:48.595Z,21.5
2019-01-25T10:39:38.349Z,21.5
2019-01-25T10:40:28.134Z,21.5
2019-01-25T10:41:19.038Z,21.4
2019-01-25T10:42:09.154Z,21.4
2019-01-25T10:43:00.480Z,21.4
2019-01-25T10:43:48.371Z,21.4
2019-01-25T10:44:38.706Z,21.4
2019-01-25T10:45:28.772Z,21.4
2019-01-25T10:46:18.845Z,21.4
2019-01-25T10:47:09.556Z,21.3
2019-01-25T10:47:59.544Z,21.3
2019-01-25T10:48:48.139Z,21.3
2019-01-25T10:49:39.100Z,21.3
2019-01-25T10:50:29.684Z,21.3
2019-01-25T10:51:18.936Z,21.3
2019-01-25T10:52:11.104Z,21.4
2019-01-25T10:52:59.026Z,21.4
2019-01-25T10:53:49.596Z,21.3
2019-01-25T10:54:39.966Z,21.3
2019-01-25T10:55:30.015Z,21.3
2019-01-25T10:56:19.501Z,21.3
2019-01-25T10:57:09.829Z,21.3
2019-01-25T10:57:59.628Z,21.3
2019-01-25T10:58:49.647Z,21.3
2019-01-25T10:59:39.718Z,21.3
2019-01-25T11:00:30.081Z,21.3
2019-01-25T11:01:19.848Z,21.3
2019-01-25T11:02:10.447Z,21.3
2019-01-25T11:03:05.543Z,21.3
2019-01-25T11:03:52.125Z,21.3
2019-01-25T11:04:40.629Z,21.3
2019-01-25T11:05:30.153Z,21.3
2019-01-25T11:06:20.709Z,21.3
2019-01-25T11:07:10.812Z,21.4
2019-01-25T11:08:00.619Z,21.4
2019-01-25T11:08:50.729Z,21.4
2019-01-25T11:09:45.277Z,21.4
2019-01-25T11:10:30.768Z,21.4
2019-01-25T11:11:21.092Z,21.5
2019-01-25T11:12:11.116Z,21.5
2019-01-25T11:13:07.600Z,21.5
2019-01-25T11:13:51.271Z,21.4
2019-01-25T11:14:41.356Z,21.4
2019-01-25T11:15:30.813Z,21.4
2019-01-25T11:16:21.138Z,21.4
2019-01-25T11:17:11.219Z,21.3
2019-01-25T11:18:01.552Z,21.3
2019-01-25T11:18:51.054Z,21.3
2019-01-25T11:19:41.106Z,21.3
2019-01-25T11:20:31.778Z,21.3
2019-01-25T11:21:21.560Z,21.3
2019-01-25T11:22:10.687Z,21.3
2019-01-25T11:23:01.643Z,21.3
2019-01-25T11:23:51.381Z,21.3
2019-01-25T11:24:41.439Z,21.3
2019-01-25T11:25:31.810Z,21.3
2019-01-25T11:26:21.829Z,21.3
2019-01-25T11:27:11.850Z,21.3
2019-01-25T11:28:02.232Z,21.3
2019-01-25T11:28:52.013Z,21.3
2019-01-25T11:29:42.328Z,21.3
2019-01-25T11:30:32.448Z,21.3
2019-01-25T11:31:21.947Z,21.3
2019-01-25T11:32:12.276Z,21.3
2019-01-25T11:33:02.563Z,21.3
2019-01-25T11:33:52.065Z,21.3
2019-01-25T11:34:42.660Z,21.3
2019-01-25T11:35:32.162Z,21.2
2019-01-25T11:36:22.220Z,21.2
2019-01-25T11:41:23.184Z,21.2
2019-01-25T11:42:12.947Z,21.2
2019-01-25T11:43:10.789Z,21.2
2019-01-25T11:43:53.052Z,21.2
2019-01-25T11:44:42.572Z,21.3
2019-01-25T11:45:33.162Z,21.3
2019-01-25T11:46:23.540Z,21.3
2019-01-25T11:47:13.534Z,21.3
2019-01-25T11:48:05.042Z,21.3
2019-01-25T11:48:53.346Z,21.3
2019-01-25T11:49:43.179Z,21.3
2019-01-25T11:50:33.753Z,21.4
2019-01-25T11:51:25.080Z,21.4
2019-01-25T11:52:13.473Z,21.4
2019-01-25T11:53:03.404Z,21.4
2019-01-25T11:53:53.997Z,21.4
2019-01-25T11:54:44.054Z,21.4
2019-01-25T11:55:33.522Z,21.4
2019-01-25T11:56:23.374Z,21.4
2019-01-25T11:57:14.201Z,21.4
2019-01-25T11:58:04.306Z,21.3
2019-01-25T11:58:54.327Z,21.3
2019-01-25T11:59:44.372Z,21.3
2019-01-25T12:00:34.446Z,21.3
2019-01-25T12:01:23.681Z,21.3
2019-01-25T12:02:21.698Z,21.3
2019-01-25T12:03:04.641Z,21.3
2019-01-25T12:03:54.676Z,21.3
2019-01-25T12:04:44.223Z,21.3
2019-01-25T12:05:34.230Z,21.2
2019-01-25T12:07:35.965Z,21.2
2019-01-25T12:08:26.550Z,21.2
2019-01-25T12:09:16.868Z,21.2
2019-01-25T12:10:06.908Z,21.3
2019-01-25T12:10:56.948Z,21.3
2019-01-25T12:11:47.308Z,21.3
2019-01-25T12:12:36.902Z,21.3
2019-01-25T12:13:27.413Z,21.3